»·PEaware :: UAL189 KPDX-KBOI

UAL189 :: KPDX-KBOI

FLIGHT INFORMATION

Flight Status: Arrived
Operator:
United Airlines
More flights by this operator :: More flights under this callsign
Pilot: Patricio R. (14780)
Aircraft: BOEING 737-200
(B732)
More flights by this aircraft type
Origin: KPDX Portland Intl
United States
Destination: KBOI Boise Air Terminal/Gowen
United States
More flights between these airports :: More routes between these airports
Route: +IMB V500 BOI
File this flight plan on PilotEdge
Remarks:
Altitude:
(Current/Filed)
25,000ft
Speed:
(Current/Filed)
412kts
Departed: 26-Feb-18 06:15 PM
Arrived: 26-Feb-18 07:10 PM
Distance/Time
Traveled:
298nm/0:55
Distance/Time
To Go:
Arrived

Flight Plot

Page will automatically refresh every two minutes.

Flight plan parsing failed; only flown route is shown


Map Options




Map Legend


Flown Route
Filed Route
Departure Airport
Arrival Airport
Navaid (VOR, NDB)
Fix

Horizontal Profiles

Position Reports

Time Latitude Longitude Heading Altitude Ground
Speed
26-Feb-18 18:01 45.590036 -122.591063 208 38ft 0kts
26-Feb-18 18:02 45.590036 -122.591063 208 38ft 0kts
26-Feb-18 18:03 45.590036 -122.591063 208 38ft 0kts
26-Feb-18 18:04 45.590036 -122.591063 208 38ft 0kts
26-Feb-18 18:05 45.590036 -122.591063 208 38ft 0kts
26-Feb-18 18:06 45.590036 -122.591063 208 38ft 0kts
26-Feb-18 18:07 45.590036 -122.591063 208 38ft 0kts
26-Feb-18 18:08 45.590036 -122.591063 208 38ft 0kts
26-Feb-18 18:09 45.590036 -122.591063 208 38ft 0kts
26-Feb-18 18:10 45.590036 -122.591063 208 38ft 0kts
26-Feb-18 18:11 45.590036 -122.591063 208 38ft 0kts
26-Feb-18 18:12 45.590036 -122.591063 208 38ft 0kts
26-Feb-18 18:13 45.590036 -122.591063 208 38ft 0kts
26-Feb-18 18:14 45.590036 -122.591063 208 38ft 0kts
26-Feb-18 18:15 45.590101 -122.591013 208 38ft 2kts
26-Feb-18 18:16 45.590610 -122.590598 233 38ft 2kts
26-Feb-18 18:17 45.590618 -122.590248 299 38ft 0kts
26-Feb-18 18:18 45.590618 -122.590248 299 38ft 0kts
26-Feb-18 18:19 45.591938 -122.593725 299 38ft 15kts
26-Feb-18 18:20 45.593942 -122.597957 4 38ft 7kts
26-Feb-18 18:21 45.594814 -122.596973 45 38ft 7kts
26-Feb-18 18:22 45.587400 -122.576867 119 195ft 167kts
26-Feb-18 18:23 45.562895 -122.516224 117 3520ft 188kts
26-Feb-18 18:24 45.533091 -122.441587 117 6003ft 249kts
26-Feb-18 18:25 45.495739 -122.350183 117 8967ft 281kts
26-Feb-18 18:26 45.454919 -122.251325 118 11807ft 302kts
26-Feb-18 18:27 45.411274 -122.146120 118 14396ft 318kts
26-Feb-18 18:28 45.364139 -122.036481 117 16721ft 332kts
26-Feb-18 18:29 45.313868 -121.923276 117 18806ft 345kts
26-Feb-18 18:30 45.269939 -121.826888 117 20356ft 355kts
26-Feb-18 18:31 45.205076 -121.688002 117 22315ft 368kts
26-Feb-18 18:32 45.146979 -121.566514 117 23807ft 377kts
26-Feb-18 18:33 45.097141 -121.464092 117 24986ft 383kts
26-Feb-18 18:34 45.025813 -121.314992 118 25240ft 417kts
26-Feb-18 18:35 44.972446 -121.199327 117 25239ft 429kts
26-Feb-18 18:36 44.908532 -121.054201 117 25211ft 439kts
26-Feb-18 18:37 44.836885 -120.880996 117 25162ft 447kts
26-Feb-18 18:38 44.785174 -120.754143 117 25136ft 451kts
26-Feb-18 18:39 44.752594 -120.588490 94 25136ft 445kts
26-Feb-18 18:40 44.734155 -120.415942 96 25136ft 448kts
26-Feb-18 18:41 44.713824 -120.247247 97 25136ft 449kts
26-Feb-18 18:42 44.693322 -120.078155 97 25125ft 451kts
26-Feb-18 18:43 44.672164 -119.904883 97 25117ft 452kts
26-Feb-18 18:44 44.649466 -119.731474 104 25112ft 455kts
26-Feb-18 18:45 44.606463 -119.564162 109 25119ft 457kts
26-Feb-18 18:46 44.558178 -119.399018 109 25119ft 458kts
26-Feb-18 18:47 44.509817 -119.234745 110 25118ft 458kts
26-Feb-18 18:48 44.461307 -119.069797 110 25119ft 459kts
26-Feb-18 18:49 44.412609 -118.904533 110 25118ft 460kts
26-Feb-18 18:50 44.363396 -118.739141 111 25120ft 462kts
26-Feb-18 18:51 44.313804 -118.573464 111 25121ft 464kts
26-Feb-18 18:52 44.263729 -118.407806 111 25121ft 465kts
26-Feb-18 18:53 44.214266 -118.245064 112 25113ft 466kts
26-Feb-18 18:54 44.163589 -118.079070 112 25094ft 467kts
26-Feb-18 18:55 44.112857 -117.913639 112 25079ft 452kts
26-Feb-18 18:56 44.066046 -117.756200 112 23589ft 437kts
26-Feb-18 18:57 44.019332 -117.607542 112 21557ft 411kts
26-Feb-18 18:58 43.973575 -117.465273 112 19681ft 396kts
26-Feb-18 18:59 43.929274 -117.328588 113 17518ft 383kts
26-Feb-18 19:00 43.888333 -117.203958 113 15575ft 369kts
26-Feb-18 19:01 43.846206 -117.075869 112 14512ft 361kts
26-Feb-18 19:02 43.805244 -116.950641 112 13404ft 352kts
26-Feb-18 19:03 43.766991 -116.834122 113 12209ft 317kts
26-Feb-18 19:04 43.731691 -116.727082 113 10876ft 298kts
26-Feb-18 19:05 43.708257 -116.620623 104 9540ft 284kts
26-Feb-18 19:06 43.687227 -116.516969 103 8198ft 277kts
26-Feb-18 19:07 43.666488 -116.414850 103 8019ft 277kts
26-Feb-18 19:08 43.646653 -116.317788 104 7992ft 251kts
26-Feb-18 19:09 43.627990 -116.228822 104 7996ft 241kts
26-Feb-18 19:10 43.608686 -116.138536 104 7966ft 240kts
26-Feb-18 19:11 43.589931 -116.051891 104 7112ft 235kts
26-Feb-18 19:12 43.540701 -116.005166 174 6054ft 239kts
26-Feb-18 19:13 43.489645 -116.036258 271 5011ft 222kts
26-Feb-18 19:14 43.517736 -116.096132 312 4647ft 166kts
26-Feb-18 19:15 43.538438 -116.145055 301 3800ft 131kts
26-Feb-18 19:16 43.553269 -116.187203 299 3167ft 116kts
26-Feb-18 19:17 43.564201 -116.219161 294 2880ft 20kts
26-Feb-18 19:18 43.566433 -116.223592 21 2880ft 9kts
26-Feb-18 19:19 43.566590 -116.221128 352 2880ft 8kts
26-Feb-18 19:20 43.567305 -116.220833 24 2880ft 0kts

Navigation Log

Ident Type
Flight plan parsing failed, navigation log unavailable